Time;durP1;ratioP1;P1;durP2;ratioP2;P2;SDS_P1;SDS_P2;PMS_P1;PMS_P2;Temp;Humidity;BMP_temperature;BMP_pressure;BME280_temperature;BME280_humidity;BME280_pressure;Samples;Min_cycle;Max_cycle;Signal;HPM_P1;HPM_P2
2023/07/14 00:01:26;;;;;;;17.80;12.32;;;;;;;-141.97;57.81;47563.28;5073152;28;20557;-82
2023/07/14 00:03:52;;;;;;;19.30;12.77;;;;;;;-141.97;57.80;47307.66;5073253;28;20280;-82
2023/07/14 00:06:18;;;;;;;18.30;12.32;;;;;;;-141.97;57.65;47330.72;5074109;28;20163;-82
2023/07/14 00:08:45;;;;;;;17.17;13.00;;;;;;;-141.97;57.63;47303.81;5074097;28;20645;-81
2023/07/14 00:11:16;;;;;;;21.30;12.82;;;;;;;-141.97;57.46;47303.81;5077170;28;20296;-80
2023/07/14 00:13:41;;;;;;;20.05;12.60;;;;;;;-141.97;57.23;47369.16;5077630;28;20164;-82
2023/07/14 00:16:17;;;;;;;22.33;13.20;;;;;;;-141.97;56.77;47240.41;5073441;28;20291;-80
2023/07/14 00:18:42;;;;;;;21.08;11.75;;;;;;;-141.97;56.30;47334.56;5072932;28;20178;-81
2023/07/14 00:21:25;;;;;;;19.48;12.73;;;;;;;-141.97;56.18;47323.03;5073413;28;20182;-81
2023/07/14 00:23:57;;;;;;;18.58;13.05;;;;;;;-141.97;55.73;47321.13;5073576;28;20171;-81
2023/07/14 00:26:23;;;;;;;20.85;12.50;;;;;;;-141.97;55.70;47328.81;5072764;28;20271;-82
2023/07/14 00:28:49;;;;;;;17.98;13.02;;;;;;;-141.97;55.90;47307.66;5072550;28;20219;-81
2023/07/14 00:31:17;;;;;;;19.50;13.30;;;;;;;-141.97;55.57;47265.38;5073213;28;20660;-81
2023/07/14 00:33:51;;;;;;;17.13;13.32;;;;;;;-141.97;55.66;47336.50;5072099;28;20177;-80
2023/07/14 00:36:17;;;;;;;21.35;13.57;;;;;;;-141.97;55.86;47292.28;5078811;28;20197;-81
2023/07/14 00:38:43;;;;;;;16.95;12.55;;;;;;;-141.97;56.36;47305.75;5073005;28;20230;-80
2023/07/14 00:41:17;;;;;;;19.00;12.90;;;;;;;-141.97;57.05;47280.75;5073138;28;20179;-79
2023/07/14 00:43:43;;;;;;;18.33;12.70;;;;;;;-141.97;57.74;47309.59;5072718;28;20288;-80
2023/07/14 00:46:33;;;;;;;18.27;13.38;;;;;;;-141.97;58.02;47284.59;5072331;28;20246;-81
2023/07/14 00:49:10;;;;;;;17.83;12.82;;;;;;;-141.97;58.67;47255.78;5072362;28;20175;-80
2023/07/14 00:51:37;;;;;;;18.27;13.65;;;;;;;-141.97;59.85;47349.94;5061587;28;20623;-80
2023/07/14 00:54:02;;;;;;;18.55;12.98;;;;;;;-141.97;59.63;47275.00;5072010;28;20300;-81
2023/07/14 00:56:43;;;;;;;15.23;13.00;;;;;;;-141.97;59.81;47330.72;5072285;28;20218;-82
2023/07/14 00:59:15;;;;;;;17.90;13.65;;;;;;;-141.97;59.40;47280.75;5072539;28;20176;-82
2023/07/14 01:02:19;;;;;;;19.60;13.30;;;;;;;-141.97;60.18;47324.97;5070726;28;20556;-81
2023/07/14 01:05:06;;;;;;;19.17;13.63;;;;;;;-141.97;60.29;47326.88;5071989;28;20181;-81
2023/07/14 01:07:39;;;;;;;19.20;13.48;;;;;;;-141.97;60.49;47349.94;5072138;28;20190;-81
2023/07/14 01:10:08;;;;;;;23.60;14.27;;;;;;;-141.97;60.64;47326.88;5070970;28;20251;-82
2023/07/14 01:12:36;;;;;;;21.05;13.05;;;;;;;-141.97;60.71;47330.72;5072139;28;20173;-81
2023/07/14 01:15:05;;;;;;;23.27;13.82;;;;;;;-141.97;60.52;47332.66;5071529;28;20548;-82
2023/07/14 01:17:30;;;;;;;20.65;13.80;;;;;;;-141.97;60.04;47319.19;5071870;28;20215;-82
2023/07/14 01:20:00;;;;;;;24.70;14.00;;;;;;;-141.97;60.42;47326.88;5072741;28;20158;-81
2023/07/14 01:23:07;;;;;;;19.50;12.95;;;;;;;-141.97;60.46;47336.50;5072116;28;20173;-82
2023/07/14 01:25:35;;;;;;;25.23;13.48;;;;;;;-141.97;60.48;47351.88;4993450;28;20199;-82
2023/07/14 01:28:07;;;;;;;20.55;13.25;;;;;;;-141.97;60.02;47269.22;4994107;28;20182;-81
2023/07/14 01:30:33;;;;;;;24.17;14.23;;;;;;;-141.97;60.22;47338.41;5009771;28;20188;-81
2023/07/14 01:32:59;;;;;;;20.88;13.45;;;;;;;-141.97;60.58;47346.09;4993295;28;20178;-82
2023/07/14 01:35:39;;;;;;;25.50;13.23;;;;;;;-141.97;60.79;47353.78;5010156;28;20338;-82
2023/07/14 01:38:05;;;;;;;19.50;13.88;;;;;;;-141.97;60.03;47340.34;5010219;28;20191;-81
2023/07/14 01:40:33;;;;;;;20.48;13.57;;;;;;;-141.97;59.68;47338.41;5011094;28;20191;-82
2023/07/14 01:43:02;;;;;;;20.52;14.27;;;;;;;-141.97;58.93;47353.78;5009559;28;20191;-81
2023/07/14 01:45:34;;;;;;;21.75;13.30;;;;;;;-141.97;59.20;47334.56;5007310;28;20300;-82
2023/07/14 01:48:02;;;;;;;21.27;12.80;;;;;;;-141.97;58.13;47346.09;5009335;28;20255;-82
2023/07/14 01:50:35;;;;;;;19.85;13.57;;;;;;;-141.97;58.44;47376.84;4999826;28;20160;-82
2023/07/14 01:53:09;;;;;;;19.52;13.05;;;;;;;-141.97;58.87;47567.13;5009412;28;20231;-81
2023/07/14 01:55:38;;;;;;;19.90;13.32;;;;;;;-141.97;59.20;47392.22;5008822;28;20214;-82
2023/07/14 01:58:13;;;;;;;20.88;13.15;;;;;;;-141.97;59.98;47365.31;5009335;28;20499;-81
2023/07/14 02:00:39;;;;;;;20.10;13.95;;;;;;;-141.97;60.28;47334.56;5009318;28;20198;-81
2023/07/14 02:03:08;;;;;;;20.60;14.57;;;;;;;-141.97;59.83;47346.09;5065224;28;20271;-81
2023/07/14 02:05:36;;;;;;;22.42;14.75;;;;;;;-141.97;60.02;47324.97;5071284;28;20177;-80
2023/07/14 02:08:05;;;;;;;21.33;14.80;;;;;;;-141.97;60.27;47334.56;5069919;28;20610;-81
2023/07/14 02:10:32;;;;;;;22.70;15.27;;;;;;;-141.97;60.30;47371.09;5071349;28;20614;-81
2023/07/14 02:12:59;;;;;;;23.33;13.77;;;;;;;-141.97;60.10;47338.41;5070537;28;20176;-81
2023/07/14 02:15:31;;;;;;;22.65;13.32;;;;;;;-141.97;60.51;47592.13;5070373;28;20267;-80
2023/07/14 02:17:58;;;;;;;22.45;13.20;;;;;;;-141.97;60.50;47317.28;5070757;28;20174;-81
2023/07/14 02:20:25;;;;;;;23.10;13.65;;;;;;;-141.97;60.49;47373.00;5070949;28;20162;-82
2023/07/14 02:22:53;;;;;;;21.23;13.30;;;;;;;-141.97;59.58;47384.53;5070158;28;20943;-81
2023/07/14 02:25:21;;;;;;;22.10;13.77;;;;;;;-141.97;60.83;47365.31;5070908;28;20583;-81
2023/07/14 02:27:46;;;;;;;20.87;13.43;;;;;;;-141.97;60.10;47338.41;5071069;28;20157;-81
2023/07/14 02:30:19;;;;;;;19.50;14.25;;;;;;;-141.97;59.12;47376.84;5071557;28;20620;-81
2023/07/14 02:32:50;;;;;;;33.10;14.35;;;;;;;-141.97;58.92;47344.19;5070090;28;20176;-81
2023/07/14 02:35:38;;;;;;;23.30;13.82;;;;;;;-141.97;59.81;47374.94;5071729;28;20201;-81
2023/07/14 02:38:11;;;;;;;23.70;14.03;;;;;;;-141.97;60.21;47380.69;5071281;28;20169;-81
2023/07/14 02:40:51;;;;;;;23.67;14.10;;;;;;;-141.97;59.25;47380.69;5071984;28;20625;-81
2023/07/14 02:43:19;;;;;;;22.05;15.05;;;;;;;-141.97;56.78;47344.19;5072126;28;20167;-81
2023/07/14 02:46:16;;;;;;;23.03;16.07;;;;;;;-141.97;56.82;47361.47;5071251;28;20285;-81
2023/07/14 02:48:45;;;;;;;35.00;19.00;;;;;;;-141.97;57.50;47392.22;5068957;28;20552;-82
2023/07/14 02:51:11;;;;;;;29.57;19.77;;;;;;;-141.97;58.53;47365.31;5060893;28;20227;-82
2023/07/14 02:53:36;;;;;;;32.07;20.03;;;;;;;-141.97;58.75;47380.69;5070200;28;20165;-82
2023/07/14 02:56:03;;;;;;;32.70;19.67;;;;;;;-141.97;60.24;47336.50;5069534;28;20272;-82
2023/07/14 02:58:29;;;;;;;36.67;20.70;;;;;;;-141.97;60.61;47342.25;5072824;28;20172;-82
2023/07/14 03:00:55;;;;;;;24.13;17.83;;;;;;;-141.97;64.77;47590.19;5074615;28;20272;-82
2023/07/14 03:03:20;;;;;;;22.63;16.90;;;;;;;-141.97;65.97;47415.28;5074036;28;20692;-82
2023/07/14 03:05:46;;;;;;;23.97;16.70;;;;;;;-141.97;66.66;47388.38;5075027;28;20562;-81
2023/07/14 03:08:15;;;;;;;23.50;16.57;;;;;;;-141.97;66.77;47407.59;5074215;28;20165;-81
2023/07/14 03:10:46;;;;;;;24.60;15.77;;;;;;;-141.97;66.34;47359.56;5074379;28;20247;-81
2023/07/14 03:13:12;;;;;;;24.73;15.37;;;;;;;-141.97;66.71;47394.16;5074086;28;20226;-81
2023/07/14 03:15:38;;;;;;;21.33;14.80;;;;;;;-141.97;66.49;47421.06;5074401;28;20231;-82
2023/07/14 03:18:04;;;;;;;26.60;15.53;;;;;;;-141.97;66.45;47326.88;5074075;28;20675;-82
2023/07/14 03:20:30;;;;;;;27.80;15.97;;;;;;;-141.97;66.67;47315.34;5074666;28;20188;-83
2023/07/14 03:22:55;;;;;;;24.53;16.23;;;;;;;-141.97;67.27;47378.78;5073092;28;20187;-81
2023/07/14 03:25:21;;;;;;;24.70;15.80;;;;;;;-141.97;68.02;47409.53;5074381;28;20553;-81
2023/07/14 03:27:46;;;;;;;26.50;15.17;;;;;;;-141.97;66.37;47401.84;5073616;28;20189;-84
2023/07/14 03:30:14;;;;;;;21.57;14.50;;;;;;;-141.97;66.52;47415.28;5073878;28;20771;-81
2023/07/14 03:32:42;;;;;;;21.30;14.73;;;;;;;-141.97;67.12;47380.69;5090132;28;20163;-84
2023/07/14 03:35:08;;;;;;;25.30;15.37;;;;;;;-141.97;66.74;47313.44;5083887;28;20238;-84
2023/07/14 03:37:34;;;;;;;19.40;14.37;;;;;;;-141.97;66.94;47428.75;5079404;28;20453;-82
2023/07/14 03:39:59;;;;;;;20.80;14.90;;;;;;;-141.97;65.96;47378.78;5081249;28;20282;-83
2023/07/14 03:42:25;;;;;;;22.87;15.77;;;;;;;-141.97;65.35;47428.75;5070798;28;20173;-83
2023/07/14 03:44:50;;;;;;;20.73;15.77;;;;;;;-141.97;65.62;47328.81;5057205;28;20307;-80
2023/07/14 03:47:16;;;;;;;22.20;16.20;;;;;;;-141.97;66.01;47403.75;5053779;28;20178;-80
2023/07/14 03:49:41;;;;;;;27.07;16.03;;;;;;;-141.97;66.02;47380.69;5070659;28;20177;-79
2023/07/14 03:52:07;;;;;;;21.17;14.87;;;;;;;-141.97;64.96;47409.53;5064324;28;20236;-81
2023/07/14 03:54:32;;;;;;;22.80;14.67;;;;;;;-141.97;64.25;47392.22;5074036;28;20187;-81
2023/07/14 03:56:58;;;;;;;19.33;14.07;;;;;;;-141.97;63.87;47378.78;5077623;28;20349;-81
2023/07/14 03:59:25;;;;;;;19.70;14.13;;;;;;;-141.97;63.28;47315.34;5074106;28;20232;-82
2023/07/14 04:01:50;;;;;;;20.40;14.60;;;;;;;-141.97;62.96;47386.47;5074068;28;20243;-82
2023/07/14 04:04:15;;;;;;;20.57;14.20;;;;;;;-141.97;62.84;47380.69;5073601;28;20637;-83
2023/07/14 04:06:41;;;;;;;19.23;14.27;;;;;;;-141.97;62.26;47357.63;5073503;28;20172;-82
2023/07/14 04:09:07;;;;;;;20.53;14.33;;;;;;;-141.97;61.83;47394.16;5072755;28;20693;-82
2023/07/14 04:11:35;;;;;;;27.20;14.67;;;;;;;-141.97;61.62;47584.44;5074089;28;20698;-83
2023/07/14 04:14:02;;;;;;;22.77;15.03;;;;;;;-141.97;61.93;47361.47;5073684;28;20187;-84
2023/07/14 04:16:28;;;;;;;22.90;14.97;;;;;;;-141.97;61.45;47363.41;5078293;28;20230;-85
2023/07/14 04:18:53;;;;;;;20.93;13.87;;;;;;;-141.97;60.75;47396.06;5075739;28;20173;-84
2023/07/14 04:21:24;;;;;;;22.13;13.70;;;;;;;-141.97;60.69;47373.00;5072720;28;20160;-80
2023/07/14 04:23:50;;;;;;;20.77;13.53;;;;;;;-141.97;59.77;47369.16;5072810;28;20171;-80
2023/07/14 04:26:15;;;;;;;22.20;13.17;;;;;;;-141.97;60.44;47388.38;5073249;28;20161;-81
2023/07/14 04:28:41;;;;;;;17.23;12.40;;;;;;;-141.97;59.65;47384.53;5072605;28;20263;-80
2023/07/14 04:31:06;;;;;;;18.57;11.87;;;;;;;-141.97;59.63;47392.22;5073432;28;20180;-80
2023/07/14 04:33:32;;;;;;;19.93;12.43;;;;;;;-141.97;58.92;47373.00;5073301;28;20172;-80
2023/07/14 04:35:58;;;;;;;16.50;11.90;;;;;;;-141.97;57.87;47419.13;5072073;28;20227;-79
2023/07/14 04:38:24;;;;;;;18.83;10.93;;;;;;;-141.97;56.77;47411.44;5072991;28;20203;-79
2023/07/14 04:40:50;;;;;;;23.23;11.73;;;;;;;-141.97;55.52;47365.31;5072244;28;20199;-80
2023/07/14 04:43:16;;;;;;;16.70;10.47;;;;;;;-141.97;54.20;47394.16;5072201;28;20164;-80
2023/07/14 04:45:44;;;;;;;20.40;11.40;;;;;;;-141.97;53.44;47369.16;5072300;28;20590;-80
2023/07/14 04:48:13;;;;;;;19.25;11.18;;;;;;;-141.97;52.83;47388.38;5071929;28;20171;-79
2023/07/14 04:50:38;;;;;;;19.60;11.48;;;;;;;-141.97;52.49;47407.59;5072881;28;20617;-80
2023/07/14 04:53:05;;;;;;;17.60;10.70;;;;;;;-141.97;51.71;47365.31;5062105;28;20253;-80
2023/07/14 04:55:38;;;;;;;21.80;11.73;;;;;;;-141.97;51.29;47344.19;5071067;28;20618;-80
2023/07/14 04:58:04;;;;;;;25.10;11.73;;;;;;;-141.97;50.41;47357.63;5072386;28;20171;-80
2023/07/14 05:00:31;;;;;;;22.63;11.82;;;;;;;-141.97;49.98;47384.53;5071526;28;20597;-79
2023/07/14 05:02:57;;;;;;;25.67;12.00;;;;;;;-141.97;49.58;47349.94;5072380;28;20173;-80
2023/07/14 05:05:24;;;;;;;23.08;12.70;;;;;;;-141.97;49.25;47346.09;5073066;28;20184;-80
2023/07/14 05:07:50;;;;;;;20.13;11.57;;;;;;;-141.97;49.42;47346.09;5072640;28;20168;-81
2023/07/14 05:10:16;;;;;;;23.80;11.98;;;;;;;-141.97;49.37;47348.03;5070304;28;20559;-80
2023/07/14 05:12:42;;;;;;;20.23;11.63;;;;;;;-141.97;49.22;47342.25;5072020;28;20183;-80
2023/07/14 05:15:10;;;;;;;21.38;12.02;;;;;;;-141.97;48.58;47346.09;5072242;28;20191;-79
2023/07/14 05:17:41;;;;;;;18.55;11.13;;;;;;;-141.97;48.50;47332.66;5071475;28;20174;-80
2023/07/14 05:20:10;;;;;;;21.40;11.63;;;;;;;-141.97;48.77;47373.00;5070564;28;20576;-80
2023/07/14 05:22:40;;;;;;;24.33;12.50;;;;;;;-141.97;48.30;47367.25;5072030;28;20558;-80
2023/07/14 05:25:06;;;;;;;25.67;12.38;;;;;;;-141.97;47.07;47328.81;5071937;28;20171;-80
2023/07/14 05:27:31;;;;;;;20.08;11.68;;;;;;;-141.97;46.70;47357.63;5071661;28;20158;-79
2023/07/14 05:29:57;;;;;;;18.88;11.80;;;;;;;-141.97;45.75;47315.34;5071544;28;20173;-80
2023/07/14 05:32:24;;;;;;;23.33;11.93;;;;;;;-141.97;44.18;47326.88;5071401;28;20253;-80
2023/07/14 05:34:50;;;;;;;19.38;10.88;;;;;;;-141.97;43.20;47323.03;5071631;28;20182;-80
2023/07/14 05:37:17;;;;;;;18.85;9.95;;;;;;;-141.97;42.03;47288.44;5071347;28;20220;-80
2023/07/14 05:39:43;;;;;;;16.92;9.50;;;;;;;-141.97;41.46;47401.84;5071332;28;20197;-79
2023/07/14 05:42:09;;;;;;;20.15;10.18;;;;;;;-141.97;40.92;47346.09;5071623;28;20663;-79
2023/07/14 05:44:34;;;;;;;17.98;10.15;;;;;;;-141.97;40.42;47238.47;5072079;28;20766;-78
2023/07/14 05:47:00;;;;;;;18.02;9.75;;;;;;;-141.97;39.61;47290.38;5073932;28;20227;-78
2023/07/14 05:49:25;;;;;;;17.00;10.13;;;;;;;-141.97;39.64;47280.75;5073664;28;20184;-78
2023/07/14 05:51:51;;;;;;;14.98;9.95;;;;;;;-141.97;39.46;47234.63;5061693;28;20245;-78
2023/07/14 05:54:17;;;;;;;14.60;9.50;;;;;;;-141.97;39.09;47311.50;5071497;28;20206;-77
2023/07/14 05:56:42;;;;;;;18.27;9.73;;;;;;;-141.97;38.89;47273.06;5070746;28;20217;-79
2023/07/14 05:59:07;;;;;;;16.88;9.68;;;;;;;-141.97;38.72;47273.06;5071495;28;20175;-79
2023/07/14 06:01:33;;;;;;;19.48;10.50;;;;;;;-141.97;38.44;47273.06;5071842;28;20195;-79
2023/07/14 06:03:59;;;;;;;19.42;9.77;;;;;;;-141.97;38.20;47228.88;5070664;28;20182;-79
2023/07/14 06:06:24;;;;;;;21.73;10.80;;;;;;;-141.97;38.12;47238.47;5071303;28;20173;-79
2023/07/14 06:08:50;;;;;;;20.27;10.00;;;;;;;-141.97;38.36;47280.75;5070791;28;20179;-78
2023/07/14 06:11:15;;;;;;;24.52;10.48;;;;;;;-141.97;38.08;47250.00;5070977;28;20178;-78
2023/07/14 06:13:41;;;;;;;17.67;10.02;;;;;;;-141.97;37.87;47263.47;5071290;28;20172;-79
2023/07/14 06:16:06;;;;;;;18.63;11.80;;;;;;;-141.97;37.73;47255.78;5070728;28;20192;-80
2023/07/14 06:18:31;;;;;;;18.67;10.35;;;;;;;-141.97;37.68;47251.94;5070753;28;20217;-79
2023/07/14 06:20:57;;;;;;;16.23;9.93;;;;;;;-141.97;37.59;47255.78;5070738;28;20537;-79
2023/07/14 06:23:23;;;;;;;16.40;9.52;;;;;;;-141.97;37.08;47265.38;5071382;28;20160;-80
2023/07/14 06:25:48;;;;;;;15.60;9.63;;;;;;;-141.97;37.28;47265.38;5072263;28;20273;-79
2023/07/14 06:28:14;;;;;;;25.60;9.93;;;;;;;-141.97;36.87;47253.84;5073832;28;20248;-78
2023/07/14 06:30:40;;;;;;;21.55;10.07;;;;;;;-141.97;36.00;47248.09;5072551;28;20160;-80
2023/07/14 06:33:05;;;;;;;21.55;10.05;;;;;;;-141.97;36.26;47219.25;5071842;28;20226;-80
2023/07/14 06:35:31;;;;;;;21.23;11.18;;;;;;;-141.97;36.76;47261.53;5070124;28;20199;-79
2023/07/14 06:37:57;;;;;;;18.00;10.82;;;;;;;-141.97;36.75;47215.41;5069729;28;20187;-79
2023/07/14 06:40:26;;;;;;;22.77;11.25;;;;;;;-141.97;36.70;47259.63;5069454;28;20164;-79
2023/07/14 06:42:52;;;;;;;25.55;11.88;;;;;;;-141.97;36.41;47253.84;5070278;28;20169;-79
2023/07/14 06:45:18;;;;;;;21.60;11.30;;;;;;;-141.97;37.65;47263.47;5068932;28;20259;-79
2023/07/14 06:47:43;;;;;;;16.92;10.70;;;;;;;-141.97;36.57;47271.16;5070098;28;20157;-79
2023/07/14 06:50:09;;;;;;;15.15;10.15;;;;;;;-141.97;36.82;47213.50;5069519;28;20180;-79
2023/07/14 06:52:37;;;;;;;18.88;11.05;;;;;;;-141.97;36.89;47198.09;5060659;28;20324;-79
2023/07/14 06:55:03;;;;;;;15.40;10.68;;;;;;;-141.97;36.98;47263.47;5070969;28;20213;-78
2023/07/14 06:57:28;;;;;;;17.65;10.25;;;;;;;-141.97;37.51;47255.78;5070489;28;20619;-78
2023/07/14 06:59:53;;;;;;;18.40;9.93;;;;;;;-141.97;37.50;47250.00;5070114;28;20579;-78
2023/07/14 07:02:19;;;;;;;24.17;11.02;;;;;;;-141.97;37.08;47230.78;5069843;28;20169;-78
2023/07/14 07:04:44;;;;;;;19.77;10.85;;;;;;;-141.97;36.69;47234.63;5070175;28;20680;-77
2023/07/14 07:07:09;;;;;;;17.30;10.45;;;;;;;-141.97;36.95;47380.69;5072977;28;20169;-77
2023/07/14 07:09:35;;;;;;;16.48;10.52;;;;;;;-141.97;36.73;47150.06;5070860;28;20563;-77
2023/07/14 07:12:01;;;;;;;15.27;9.95;;;;;;;-141.97;36.27;47244.25;5069921;28;20161;-77
2023/07/14 07:14:27;;;;;;;13.02;9.93;;;;;;;-141.97;36.58;47255.78;5078989;28;20195;-77
2023/07/14 07:16:52;;;;;;;23.38;10.35;;;;;;;-141.97;36.53;47238.47;5084896;28;20210;-77
2023/07/14 07:19:18;;;;;;;16.38;10.60;;;;;;;-141.97;36.67;47201.97;5078257;28;20275;-78
2023/07/14 07:21:43;;;;;;;15.73;9.52;;;;;;;-141.97;36.43;47250.00;5065181;28;20189;-77
2023/07/14 07:24:09;;;;;;;20.67;11.45;;;;;;;-141.97;36.12;47228.88;5064828;28;20185;-78
2023/07/14 07:26:35;;;;;;;20.88;10.93;;;;;;;-141.97;35.89;47196.19;5065371;28;20672;-78
2023/07/14 07:29:00;;;;;;;16.15;10.73;;;;;;;-141.97;35.63;47196.19;5063812;28;20846;-78
2023/07/14 07:31:26;;;;;;;18.08;10.50;;;;;;;-141.97;35.56;47215.41;5061003;28;20184;-77
2023/07/14 07:33:51;;;;;;;20.60;11.27;;;;;;;-141.97;36.04;47198.09;5043139;28;20228;-78
2023/07/14 07:36:17;;;;;;;17.05;10.80;;;;;;;-141.97;35.66;47207.72;5059935;28;20216;-78
2023/07/14 07:38:43;;;;;;;18.25;10.63;;;;;;;-141.97;35.63;47196.19;5060223;28;20326;-77
2023/07/14 07:41:09;;;;;;;19.30;10.63;;;;;;;-141.97;36.15;47196.19;5055069;28;20190;-77
2023/07/14 07:43:34;;;;;;;18.30;10.95;;;;;;;-141.97;36.21;47169.28;5051572;28;20188;-77
2023/07/14 07:46:00;;;;;;;18.27;10.35;;;;;;;-141.97;35.35;47221.19;5059395;28;20223;-77
2023/07/14 07:48:25;;;;;;;22.15;11.02;;;;;;;-141.97;35.19;47207.72;5072200;28;20557;-77
2023/07/14 07:50:50;;;;;;;16.58;10.85;;;;;;;-141.97;35.00;47207.72;5073100;28;20343;-77
2023/07/14 07:53:16;;;;;;;15.27;10.57;;;;;;;-141.97;35.58;47173.13;5063582;28;20601;-78
2023/07/14 07:55:41;;;;;;;19.23;10.70;;;;;;;-141.97;35.48;47175.06;5053898;28;20278;-77
2023/07/14 07:58:07;;;;;;;17.80;10.85;;;;;;;-141.97;35.52;47211.56;5068678;28;20273;-77
2023/07/14 08:00:32;;;;;;;20.15;10.75;;;;;;;-141.97;35.19;47223.09;5070650;28;20208;-77
2023/07/14 08:02:58;;;;;;;16.65;10.68;;;;;;;-141.97;35.52;47165.44;5072204;28;20647;-77
2023/07/14 08:05:25;;;;;;;17.95;11.10;;;;;;;-141.97;35.37;47205.81;5072343;28;20741;-76
2023/07/14 08:07:50;;;;;;;17.88;10.50;;;;;;;-141.97;34.68;47165.44;5071941;28;20184;-77
2023/07/14 08:10:15;;;;;;;19.33;11.10;;;;;;;-141.97;33.98;47198.09;5072139;28;20176;-77
2023/07/14 08:12:41;;;;;;;16.70;10.48;;;;;;;-141.97;34.37;47142.38;5073644;28;20198;-77
2023/07/14 08:15:10;;;;;;;15.73;10.63;;;;;;;-141.97;34.07;47194.28;5073285;28;20196;-78
2023/07/14 08:17:52;;;;;;;19.70;10.95;;;;;;;-141.97;34.12;47207.72;5072815;28;20695;-78
2023/07/14 08:20:17;;;;;;;17.33;10.45;;;;;;;-141.97;33.72;47184.66;5070688;28;20648;-79
2023/07/14 08:22:43;;;;;;;19.83;10.90;;;;;;;-141.97;33.23;47219.25;5066142;28;20188;-79
2023/07/14 08:25:09;;;;;;;20.88;11.00;;;;;;;-141.97;33.20;47196.19;5067821;28;20181;-79
2023/07/14 08:27:34;;;;;;;14.57;10.82;;;;;;;-141.97;33.15;47142.38;5070534;28;20201;-79
2023/07/14 08:30:00;;;;;;;17.23;10.80;;;;;;;-141.97;33.67;47176.97;5070945;28;20176;-78
2023/07/14 08:32:25;;;;;;;16.08;10.95;;;;;;;-141.97;32.92;47165.44;5072271;28;20260;-78
2023/07/14 08:34:51;;;;;;;12.52;10.43;;;;;;;-141.97;33.13;47148.16;5071199;28;20180;-77
2023/07/14 08:37:16;;;;;;;15.85;10.77;;;;;;;-141.97;33.08;47144.31;5071854;28;20284;-77
2023/07/14 08:39:41;;;;;;;15.23;10.52;;;;;;;-141.97;32.79;47190.44;5072912;28;20161;-78
2023/07/14 08:42:25;;;;;;;17.20;10.60;;;;;;;-141.97;32.62;47159.69;5072156;28;20259;-79
2023/07/14 08:45:07;;;;;;;17.77;10.60;;;;;;;-141.97;32.90;47163.53;5068567;28;20176;-80
2023/07/14 08:47:59;;;;;;;17.90;10.63;;;;;;;-141.97;32.48;47171.22;5067562;28;20283;-80
2023/07/14 08:50:28;;;;;;;15.32;9.60;;;;;;;-141.97;31.82;47150.06;5028612;28;20201;-79
2023/07/14 08:52:56;;;;;;;15.15;10.00;;;;;;;-141.97;31.38;47152.00;5020073;28;20234;-79
2023/07/14 08:55:26;;;;;;;18.60;11.07;;;;;;;-141.97;31.28;47196.19;5029927;28;20221;-79
2023/07/14 08:57:57;;;;;;;19.10;10.95;;;;;;;-141.97;30.49;47084.72;5029727;28;20190;-79
2023/07/14 09:00:28;;;;;;;15.82;10.68;;;;;;;-141.97;30.21;47155.84;5030111;28;20207;-79
2023/07/14 09:03:14;;;;;;;20.70;11.63;;;;;;;-141.97;30.64;47155.84;5012730;28;20217;-80
2023/07/14 09:05:49;;;;;;;16.75;10.43;;;;;;;-141.97;30.63;47132.78;5033315;28;20170;-79
2023/07/14 09:08:14;;;;;;;17.13;10.80;;;;;;;-141.97;30.38;47096.25;5030389;28;20192;-79
2023/07/14 09:11:18;;;;;;;15.75;10.65;;;;;;;-141.97;29.76;47115.47;5030365;28;20169;-80
2023/07/14 09:14:16;;;;;;;18.65;10.77;;;;;;;-141.97;29.70;47123.16;4951432;29;20199;-79
2023/07/14 09:17:08;;;;;;;22.90;13.82;;;;;;;-141.97;30.68;47315.34;4950267;29;20224;-78
2023/07/14 09:19:59;;;;;;;18.02;12.95;;;;;;;-141.97;30.84;47119.31;4912785;29;20205;-79
2023/07/14 09:22:49;;;;;;;20.67;10.73;;;;;;;-141.97;29.79;47123.16;4913459;29;20225;-78
2023/07/14 09:25:27;;;;;;;19.33;11.05;;;;;;;-141.97;30.50;47107.78;4913144;29;20201;-79
2023/07/14 09:27:53;;;;;;;22.85;10.95;;;;;;;-141.97;29.54;47115.47;4949215;28;20223;-81
2023/07/14 09:30:26;;;;;;;13.80;10.18;;;;;;;-141.97;29.61;47134.69;4970903;28;20195;-79
2023/07/14 09:33:00;;;;;;;16.65;10.82;;;;;;;-141.97;30.18;47469.09;4978580;28;20204;-78
2023/07/14 09:35:28;;;;;;;18.15;10.20;;;;;;;-141.97;29.77;47142.38;4979731;28;20211;-80
2023/07/14 09:38:10;;;;;;;18.02;10.77;;;;;;;-141.97;30.04;47142.38;4971203;28;20206;-80
2023/07/14 09:40:39;;;;;;;15.23;10.65;;;;;;;-141.97;30.28;47171.22;4954403;28;20577;-81
2023/07/14 09:43:06;;;;;;;16.15;10.82;;;;;;;-141.97;30.30;47123.16;4970541;28;20184;-79
2023/07/14 09:45:36;;;;;;;14.57;10.27;;;;;;;-141.97;29.50;47111.63;4970386;28;20224;-80
2023/07/14 09:48:05;;;;;;;19.67;10.77;;;;;;;-141.97;29.65;47111.63;4970169;28;20219;-82
2023/07/14 09:50:36;;;;;;;14.45;9.95;;;;;;;-141.97;29.71;47130.84;4998420;28;20503;-80
2023/07/14 09:53:04;;;;;;;14.63;10.23;;;;;;;-141.97;29.50;47119.31;4999374;28;20250;-80
2023/07/14 09:55:47;;;;;;;19.52;10.88;;;;;;;-141.97;29.76;47119.31;4998465;28;20305;-80
2023/07/14 09:58:16;;;;;;;14.85;9.73;;;;;;;-141.97;30.08;47103.94;5069540;28;20177;-80
2023/07/14 10:00:42;;;;;;;17.38;10.48;;;;;;;-141.97;30.17;47146.22;5071115;28;20217;-80
2023/07/14 10:03:16;;;;;;;15.13;10.40;;;;;;;-141.97;30.05;47103.94;5070950;28;20169;-78
2023/07/14 10:05:44;;;;;;;20.38;10.68;;;;;;;-141.97;28.76;47121.25;5071191;28;20164;-78
2023/07/14 10:08:53;;;;;;;17.17;10.02;;;;;;;-141.97;28.62;47107.78;5070294;28;20176;-78
2023/07/14 10:11:40;;;;;;;16.83;10.50;;;;;;;-141.97;29.14;47105.88;5046992;28;20193;-77
2023/07/14 10:14:26;;;;;;;14.70;9.95;;;;;;;-141.97;28.43;47088.56;5044777;28;20189;-77
2023/07/14 10:16:56;;;;;;;16.52;11.00;;;;;;;-141.97;28.69;47082.81;5045041;28;20197;-79
2023/07/14 10:19:31;;;;;;;17.25;10.07;;;;;;;-141.97;29.14;47067.44;5047137;28;20185;-78
2023/07/14 10:22:04;;;;;;;17.25;10.60;;;;;;;-141.97;28.70;47075.13;5045838;28;20703;-77
2023/07/14 10:24:31;;;;;;;15.27;9.65;;;;;;;-141.97;28.53;47055.91;5028582;28;20258;-77
2023/07/14 10:27:08;;;;;;;15.40;9.95;;;;;;;-141.97;29.34;47098.19;5047720;28;20268;-79
2023/07/14 10:29:48;;;;;;;16.15;9.80;;;;;;;-141.97;28.99;47057.81;5028252;28;20186;-79
2023/07/14 10:32:34;;;;;;;14.25;10.57;;;;;;;-141.97;29.34;47096.25;5034398;28;20292;-78
2023/07/14 10:35:13;;;;;;;16.55;9.88;;;;;;;-141.97;29.19;46982.88;5046391;28;20224;-80
2023/07/14 10:37:43;;;;;;;14.35;9.80;;;;;;;-141.97;29.16;47090.50;5047934;28;20200;-79
2023/07/14 10:40:18;;;;;;;13.18;9.70;;;;;;;-141.97;29.17;47134.69;5047925;28;20227;-79
2023/07/14 10:42:56;;;;;;;16.52;10.45;;;;;;;-141.97;29.58;47111.63;5047755;28;20188;-79
2023/07/14 10:45:21;;;;;;;14.10;9.27;;;;;;;-141.97;29.81;47109.72;5061000;28;20234;-80
2023/07/14 10:48:01;;;;;;;21.58;9.95;;;;;;;-141.97;29.62;47115.47;5070528;28;20153;-80
2023/07/14 10:50:39;;;;;;;13.30;9.75;;;;;;;-141.97;28.56;47113.56;5070217;28;20202;-80
2023/07/14 10:53:13;;;;;;;14.70;9.80;;;;;;;-141.97;28.32;47073.19;5053237;28;20596;-81
2023/07/14 10:55:42;;;;;;;17.90;9.38;;;;;;;-141.97;27.97;47050.13;5070107;28;20735;-81
2023/07/14 10:58:19;;;;;;;17.75;14.10;;;;;;;-141.97;28.24;47077.03;5070490;28;20736;-79
2023/07/14 11:00:56;;;;;;;23.27;15.82;;;;;;;-141.97;28.72;47088.56;5070118;28;20188;-81
2023/07/14 11:03:27;;;;;;;26.27;18.35;;;;;;;-141.97;28.23;47088.56;5068375;28;20188;-79
2023/07/14 11:06:14;;;;;;;15.90;9.75;;;;;;;-141.97;27.94;47084.72;5070613;28;20157;-80
2023/07/14 11:08:39;;;;;;;17.83;10.95;;;;;;;-141.97;28.13;47077.03;5070199;28;20172;-80
2023/07/14 11:11:23;;;;;;;17.17;9.80;;;;;;;-141.97;27.62;47077.03;5070878;28;21032;-80
2023/07/14 11:14:06;;;;;;;15.20;9.63;;;;;;;-141.97;28.09;47063.59;5070471;28;20214;-79